sim
Sign-in with your pilot id or email,
or register
Callsign
Passwort

Schedule Details

Flight Number: OEO7675
Departure: Denver International Airport (KDEN) at 18:30
Arrival: Munich Airport (EDDM) at 04:25

Weather Information
Getting current METAR information for KDEN 190753Z 26007KT 10SM BKN220 18/02 A3012 RMK AO2 SLP116 T01780017
Getting current METAR information for EDDM 190750Z 09008KT 050V110 CAVOK 12/07 Q1020 NOSIG

Schedule Frequency

Route Map